sensor_id;sensor_type;location;lat;lon;timestamp;P1;durP1;ratioP1;P2;durP2;ratioP2
63499;SDS011;49654;51.142;14.924;2023-04-16T00:01:55;6.70;;;6.10;;
63499;SDS011;49654;51.142;14.924;2023-04-16T00:04:22;7.97;;;6.47;;
63499;SDS011;49654;51.142;14.924;2023-04-16T00:06:50;9.67;;;7.50;;
63499;SDS011;49654;51.142;14.924;2023-04-16T00:09:17;10.37;;;7.37;;
63499;SDS011;49654;51.142;14.924;2023-04-16T00:11:44;8.27;;;6.70;;
63499;SDS011;49654;51.142;14.924;2023-04-16T00:14:10;10.77;;;7.07;;
63499;SDS011;49654;51.142;14.924;2023-04-16T00:16:37;8.00;;;7.00;;
63499;SDS011;49654;51.142;14.924;2023-04-16T00:19:04;8.77;;;7.80;;
63499;SDS011;49654;51.142;14.924;2023-04-16T00:21:31;11.17;;;7.83;;
63499;SDS011;49654;51.142;14.924;2023-04-16T00:23:59;10.10;;;8.30;;
63499;SDS011;49654;51.142;14.924;2023-04-16T00:26:26;9.30;;;7.63;;
63499;SDS011;49654;51.142;14.924;2023-04-16T00:28:53;8.10;;;7.30;;
63499;SDS011;49654;51.142;14.924;2023-04-16T00:31:25;8.37;;;6.80;;
63499;SDS011;49654;51.142;14.924;2023-04-16T00:33:53;7.50;;;6.73;;
63499;SDS011;49654;51.142;14.924;2023-04-16T00:36:20;9.53;;;8.30;;
63499;SDS011;49654;51.142;14.924;2023-04-16T00:38:47;9.07;;;7.53;;
63499;SDS011;49654;51.142;14.924;2023-04-16T00:41:15;8.60;;;7.73;;
63499;SDS011;49654;51.142;14.924;2023-04-16T00:43:42;8.70;;;7.70;;
63499;SDS011;49654;51.142;14.924;2023-04-16T00:46:09;8.57;;;7.30;;
63499;SDS011;49654;51.142;14.924;2023-04-16T00:48:37;7.53;;;6.57;;
63499;SDS011;49654;51.142;14.924;2023-04-16T00:51:06;8.23;;;7.33;;
63499;SDS011;49654;51.142;14.924;2023-04-16T00:53:34;7.60;;;6.80;;
63499;SDS011;49654;51.142;14.924;2023-04-16T00:56:01;8.37;;;7.03;;
63499;SDS011;49654;51.142;14.924;2023-04-16T00:58:31;8.53;;;7.43;;
63499;SDS011;49654;51.142;14.924;2023-04-16T01:00:58;8.00;;;6.93;;
63499;SDS011;49654;51.142;14.924;2023-04-16T01:03:28;8.10;;;7.10;;
63499;SDS011;49654;51.142;14.924;2023-04-16T01:06:02;8.33;;;7.53;;
63499;SDS011;49654;51.142;14.924;2023-04-16T01:08:29;9.03;;;7.50;;
63499;SDS011;49654;51.142;14.924;2023-04-16T01:10:56;9.10;;;7.70;;
63499;SDS011;49654;51.142;14.924;2023-04-16T01:13:23;7.63;;;6.83;;
63499;SDS011;49654;51.142;14.924;2023-04-16T01:15:51;8.27;;;7.40;;
63499;SDS011;49654;51.142;14.924;2023-04-16T01:18:19;9.30;;;7.50;;
63499;SDS011;49654;51.142;14.924;2023-04-16T01:20:48;12.83;;;7.40;;
63499;SDS011;49654;51.142;14.924;2023-04-16T01:23:16;8.93;;;7.03;;
63499;SDS011;49654;51.142;14.924;2023-04-16T01:25:44;8.80;;;7.07;;
63499;SDS011;49654;51.142;14.924;2023-04-16T01:28:11;11.17;;;6.80;;
63499;SDS011;49654;51.142;14.924;2023-04-16T01:30:37;8.60;;;6.97;;
63499;SDS011;49654;51.142;14.924;2023-04-16T01:33:04;7.70;;;6.63;;
63499;SDS011;49654;51.142;14.924;2023-04-16T01:35:32;6.83;;;6.13;;
63499;SDS011;49654;51.142;14.924;2023-04-16T01:38:00;7.80;;;7.00;;
63499;SDS011;49654;51.142;14.924;2023-04-16T01:40:28;8.63;;;7.00;;
63499;SDS011;49654;51.142;14.924;2023-04-16T01:42:55;7.50;;;6.73;;
63499;SDS011;49654;51.142;14.924;2023-04-16T01:45:22;7.20;;;6.50;;
63499;SDS011;49654;51.142;14.924;2023-04-16T01:47:49;7.50;;;6.60;;
63499;SDS011;49654;51.142;14.924;2023-04-16T01:50:16;8.30;;;6.60;;
63499;SDS011;49654;51.142;14.924;2023-04-16T01:52:43;7.10;;;6.40;;
63499;SDS011;49654;51.142;14.924;2023-04-16T01:55:11;8.03;;;6.60;;
63499;SDS011;49654;51.142;14.924;2023-04-16T01:57:38;7.50;;;6.70;;
63499;SDS011;49654;51.142;14.924;2023-04-16T02:00:06;10.07;;;7.37;;
63499;SDS011;49654;51.142;14.924;2023-04-16T02:02:34;7.87;;;6.80;;
63499;SDS011;49654;51.142;14.924;2023-04-16T02:05:01;7.47;;;6.67;;
63499;SDS011;49654;51.142;14.924;2023-04-16T02:07:28;7.73;;;6.80;;
63499;SDS011;49654;51.142;14.924;2023-04-16T02:09:57;10.60;;;7.50;;
63499;SDS011;49654;51.142;14.924;2023-04-16T02:12:25;9.50;;;7.30;;
63499;SDS011;49654;51.142;14.924;2023-04-16T02:14:52;9.57;;;7.27;;
63499;SDS011;49654;51.142;14.924;2023-04-16T02:17:19;7.47;;;6.67;;
63499;SDS011;49654;51.142;14.924;2023-04-16T02:19:46;7.67;;;6.60;;
63499;SDS011;49654;51.142;14.924;2023-04-16T02:22:13;9.77;;;7.70;;
63499;SDS011;49654;51.142;14.924;2023-04-16T02:24:40;11.07;;;7.90;;
63499;SDS011;49654;51.142;14.924;2023-04-16T02:27:07;9.20;;;7.73;;
63499;SDS011;49654;51.142;14.924;2023-04-16T02:29:35;10.83;;;8.10;;
63499;SDS011;49654;51.142;14.924;2023-04-16T02:32:02;9.53;;;7.37;;
63499;SDS011;49654;51.142;14.924;2023-04-16T02:34:29;10.97;;;7.47;;
63499;SDS011;49654;51.142;14.924;2023-04-16T02:36:58;10.70;;;8.10;;
63499;SDS011;49654;51.142;14.924;2023-04-16T02:39:25;10.17;;;7.90;;
63499;SDS011;49654;51.142;14.924;2023-04-16T02:41:52;9.60;;;7.63;;
63499;SDS011;49654;51.142;14.924;2023-04-16T02:44:19;8.40;;;7.20;;
63499;SDS011;49654;51.142;14.924;2023-04-16T02:46:47;9.63;;;7.23;;
63499;SDS011;49654;51.142;14.924;2023-04-16T02:49:14;9.20;;;7.07;;
63499;SDS011;49654;51.142;14.924;2023-04-16T02:51:41;9.67;;;7.83;;
63499;SDS011;49654;51.142;14.924;2023-04-16T02:54:07;10.03;;;7.90;;
63499;SDS011;49654;51.142;14.924;2023-04-16T02:56:34;12.50;;;8.93;;
63499;SDS011;49654;51.142;14.924;2023-04-16T02:59:01;9.50;;;7.77;;
63499;SDS011;49654;51.142;14.924;2023-04-16T03:01:28;9.87;;;7.97;;
63499;SDS011;49654;51.142;14.924;2023-04-16T03:03:56;10.03;;;7.43;;
63499;SDS011;49654;51.142;14.924;2023-04-16T03:06:23;8.40;;;7.07;;
63499;SDS011;49654;51.142;14.924;2023-04-16T03:08:50;13.57;;;9.23;;
63499;SDS011;49654;51.142;14.924;2023-04-16T03:11:17;11.30;;;8.63;;
63499;SDS011;49654;51.142;14.924;2023-04-16T03:13:44;10.13;;;7.90;;
63499;SDS011;49654;51.142;14.924;2023-04-16T03:16:11;9.97;;;8.50;;
63499;SDS011;49654;51.142;14.924;2023-04-16T03:18:38;9.70;;;8.27;;
63499;SDS011;49654;51.142;14.924;2023-04-16T03:21:06;10.47;;;7.70;;
63499;SDS011;49654;51.142;14.924;2023-04-16T03:23:33;8.93;;;7.57;;
63499;SDS011;49654;51.142;14.924;2023-04-16T03:26:01;8.40;;;7.33;;
63499;SDS011;49654;51.142;14.924;2023-04-16T03:28:28;9.37;;;7.07;;
63499;SDS011;49654;51.142;14.924;2023-04-16T03:30:55;8.70;;;7.27;;
63499;SDS011;49654;51.142;14.924;2023-04-16T03:33:22;8.73;;;7.20;;
63499;SDS011;49654;51.142;14.924;2023-04-16T03:35:55;8.43;;;7.03;;
63499;SDS011;49654;51.142;14.924;2023-04-16T03:38:23;10.27;;;8.13;;
63499;SDS011;49654;51.142;14.924;2023-04-16T03:40:51;10.93;;;9.30;;
63499;SDS011;49654;51.142;14.924;2023-04-16T03:43:18;8.60;;;7.70;;
63499;SDS011;49654;51.142;14.924;2023-04-16T03:45:45;8.73;;;7.50;;
63499;SDS011;49654;51.142;14.924;2023-04-16T03:48:12;9.93;;;8.13;;
63499;SDS011;49654;51.142;14.924;2023-04-16T03:50:43;11.17;;;8.90;;
63499;SDS011;49654;51.142;14.924;2023-04-16T03:53:11;12.88;;;8.18;;
63499;SDS011;49654;51.142;14.924;2023-04-16T03:55:39;9.73;;;8.23;;
63499;SDS011;49654;51.142;14.924;2023-04-16T03:58:06;9.77;;;8.40;;
63499;SDS011;49654;51.142;14.924;2023-04-16T04:00:33;9.63;;;8.25;;
63499;SDS011;49654;51.142;14.924;2023-04-16T04:03:00;9.93;;;8.23;;
63499;SDS011;49654;51.142;14.924;2023-04-16T04:05:27;9.38;;;7.72;;
63499;SDS011;49654;51.142;14.924;2023-04-16T04:07:54;10.40;;;8.68;;
63499;SDS011;49654;51.142;14.924;2023-04-16T04:10:21;10.95;;;9.00;;
63499;SDS011;49654;51.142;14.924;2023-04-16T04:12:49;10.63;;;8.70;;
63499;SDS011;49654;51.142;14.924;2023-04-16T04:15:16;13.52;;;9.32;;
63499;SDS011;49654;51.142;14.924;2023-04-16T04:17:43;14.23;;;10.45;;
63499;SDS011;49654;51.142;14.924;2023-04-16T04:20:10;13.82;;;10.48;;
63499;SDS011;49654;51.142;14.924;2023-04-16T04:22:38;15.57;;;11.23;;
63499;SDS011;49654;51.142;14.924;2023-04-16T04:25:05;17.10;;;11.27;;
63499;SDS011;49654;51.142;14.924;2023-04-16T04:27:33;16.48;;;11.80;;
63499;SDS011;49654;51.142;14.924;2023-04-16T04:30:01;21.52;;;12.50;;
63499;SDS011;49654;51.142;14.924;2023-04-16T04:32:28;16.80;;;11.88;;
63499;SDS011;49654;51.142;14.924;2023-04-16T04:34:55;20.98;;;13.70;;
63499;SDS011;49654;51.142;14.924;2023-04-16T04:37:22;20.85;;;13.27;;
63499;SDS011;49654;51.142;14.924;2023-04-16T04:39:49;17.23;;;12.18;;
63499;SDS011;49654;51.142;14.924;2023-04-16T04:42:16;18.45;;;13.23;;
63499;SDS011;49654;51.142;14.924;2023-04-16T04:44:44;20.70;;;12.95;;
63499;SDS011;49654;51.142;14.924;2023-04-16T04:47:13;15.98;;;11.65;;
63499;SDS011;49654;51.142;14.924;2023-04-16T04:49:40;19.83;;;13.23;;
63499;SDS011;49654;51.142;14.924;2023-04-16T04:52:07;21.58;;;13.55;;
63499;SDS011;49654;51.142;14.924;2023-04-16T04:54:34;23.98;;;13.77;;
63499;SDS011;49654;51.142;14.924;2023-04-16T04:57:01;24.35;;;14.57;;
63499;SDS011;49654;51.142;14.924;2023-04-16T04:59:28;20.90;;;13.25;;
63499;SDS011;49654;51.142;14.924;2023-04-16T05:01:55;22.00;;;14.13;;
63499;SDS011;49654;51.142;14.924;2023-04-16T05:04:23;24.00;;;15.10;;
63499;SDS011;49654;51.142;14.924;2023-04-16T05:06:50;25.33;;;15.30;;
63499;SDS011;49654;51.142;14.924;2023-04-16T05:09:17;24.25;;;14.82;;
63499;SDS011;49654;51.142;14.924;2023-04-16T05:11:44;24.73;;;14.60;;
63499;SDS011;49654;51.142;14.924;2023-04-16T05:14:11;28.95;;;16.95;;
63499;SDS011;49654;51.142;14.924;2023-04-16T05:16:38;24.98;;;15.98;;
63499;SDS011;49654;51.142;14.924;2023-04-16T05:19:05;28.67;;;16.63;;
63499;SDS011;49654;51.142;14.924;2023-04-16T05:21:33;26.33;;;15.40;;
63499;SDS011;49654;51.142;14.924;2023-04-16T05:24:00;23.90;;;14.80;;
63499;SDS011;49654;51.142;14.924;2023-04-16T05:26:27;25.83;;;16.70;;
63499;SDS011;49654;51.142;14.924;2023-04-16T05:28:54;28.73;;;17.05;;
63499;SDS011;49654;51.142;14.924;2023-04-16T05:31:21;25.83;;;16.92;;
63499;SDS011;49654;51.142;14.924;2023-04-16T05:33:48;26.10;;;15.52;;
63499;SDS011;49654;51.142;14.924;2023-04-16T05:36:15;51.05;;;19.52;;
63499;SDS011;49654;51.142;14.924;2023-04-16T05:38:43;32.72;;;18.52;;
63499;SDS011;49654;51.142;14.924;2023-04-16T05:41:10;24.55;;;15.40;;
63499;SDS011;49654;51.142;14.924;2023-04-16T05:43:37;25.52;;;15.13;;
63499;SDS011;49654;51.142;14.924;2023-04-16T05:46:04;24.33;;;14.80;;
63499;SDS011;49654;51.142;14.924;2023-04-16T05:48:31;24.52;;;14.70;;
63499;SDS011;49654;51.142;14.924;2023-04-16T05:50:58;23.90;;;14.50;;
63499;SDS011;49654;51.142;14.924;2023-04-16T05:53:26;26.42;;;15.27;;
63499;SDS011;49654;51.142;14.924;2023-04-16T05:55:55;22.83;;;14.15;;
63499;SDS011;49654;51.142;14.924;2023-04-16T05:58:22;21.23;;;13.55;;
63499;SDS011;49654;51.142;14.924;2023-04-16T06:00:49;15.68;;;10.32;;
63499;SDS011;49654;51.142;14.924;2023-04-16T06:03:16;16.13;;;10.18;;
63499;SDS011;49654;51.142;14.924;2023-04-16T06:05:43;17.17;;;10.10;;
63499;SDS011;49654;51.142;14.924;2023-04-16T06:08:10;17.10;;;11.23;;
63499;SDS011;49654;51.142;14.924;2023-04-16T06:10:37;18.83;;;11.35;;
63499;SDS011;49654;51.142;14.924;2023-04-16T06:13:05;18.83;;;11.23;;
63499;SDS011;49654;51.142;14.924;2023-04-16T06:15:32;16.38;;;10.85;;
63499;SDS011;49654;51.142;14.924;2023-04-16T06:17:59;15.57;;;10.93;;
63499;SDS011;49654;51.142;14.924;2023-04-16T06:20:26;16.90;;;11.32;;
63499;SDS011;49654;51.142;14.924;2023-04-16T06:22:53;17.23;;;10.68;;
63499;SDS011;49654;51.142;14.924;2023-04-16T06:25:21;18.30;;;11.32;;
63499;SDS011;49654;51.142;14.924;2023-04-16T06:27:48;20.67;;;12.40;;
63499;SDS011;49654;51.142;14.924;2023-04-16T06:30:16;18.98;;;12.10;;
63499;SDS011;49654;51.142;14.924;2023-04-16T06:32:44;17.60;;;11.85;;
63499;SDS011;49654;51.142;14.924;2023-04-16T06:35:11;21.35;;;12.70;;
63499;SDS011;49654;51.142;14.924;2023-04-16T06:37:38;20.58;;;12.85;;
63499;SDS011;49654;51.142;14.924;2023-04-16T06:40:06;18.88;;;11.85;;
63499;SDS011;49654;51.142;14.924;2023-04-16T06:42:33;20.42;;;13.70;;
63499;SDS011;49654;51.142;14.924;2023-04-16T06:45:01;22.33;;;14.43;;
63499;SDS011;49654;51.142;14.924;2023-04-16T06:47:29;22.58;;;13.65;;
63499;SDS011;49654;51.142;14.924;2023-04-16T06:49:56;21.00;;;13.50;;
63499;SDS011;49654;51.142;14.924;2023-04-16T06:52:23;20.30;;;13.60;;
63499;SDS011;49654;51.142;14.924;2023-04-16T06:54:50;22.00;;;14.95;;
63499;SDS011;49654;51.142;14.924;2023-04-16T06:57:17;22.63;;;14.75;;
63499;SDS011;49654;51.142;14.924;2023-04-16T06:59:44;22.38;;;15.25;;
63499;SDS011;49654;51.142;14.924;2023-04-16T07:02:10;21.00;;;14.57;;
63499;SDS011;49654;51.142;14.924;2023-04-16T07:04:39;23.63;;;15.15;;
63499;SDS011;49654;51.142;14.924;2023-04-16T07:07:06;27.08;;;15.65;;
63499;SDS011;49654;51.142;14.924;2023-04-16T07:09:33;23.55;;;14.75;;
63499;SDS011;49654;51.142;14.924;2023-04-16T07:12:00;19.50;;;13.45;;
63499;SDS011;49654;51.142;14.924;2023-04-16T07:14:26;17.85;;;11.95;;
63499;SDS011;49654;51.142;14.924;2023-04-16T07:16:53;19.90;;;12.80;;
63499;SDS011;49654;51.142;14.924;2023-04-16T07:19:20;18.00;;;12.00;;
63499;SDS011;49654;51.142;14.924;2023-04-16T07:21:49;20.33;;;12.82;;
63499;SDS011;49654;51.142;14.924;2023-04-16T07:24:16;18.40;;;12.15;;
63499;SDS011;49654;51.142;14.924;2023-04-16T07:26:43;19.63;;;12.38;;
63499;SDS011;49654;51.142;14.924;2023-04-16T07:29:10;19.92;;;12.18;;
63499;SDS011;49654;51.142;14.924;2023-04-16T07:31:37;21.38;;;12.98;;
63499;SDS011;49654;51.142;14.924;2023-04-16T07:34:04;19.60;;;13.30;;
63499;SDS011;49654;51.142;14.924;2023-04-16T07:36:31;25.70;;;13.43;;
63499;SDS011;49654;51.142;14.924;2023-04-16T07:38:59;20.50;;;12.65;;
63499;SDS011;49654;51.142;14.924;2023-04-16T07:41:26;23.13;;;14.57;;
63499;SDS011;49654;51.142;14.924;2023-04-16T07:43:54;20.20;;;12.82;;
63499;SDS011;49654;51.142;14.924;2023-04-16T07:46:21;23.40;;;14.20;;
63499;SDS011;49654;51.142;14.924;2023-04-16T07:48:48;22.48;;;13.98;;
63499;SDS011;49654;51.142;14.924;2023-04-16T07:51:15;21.48;;;13.75;;
63499;SDS011;49654;51.142;14.924;2023-04-16T07:53:42;18.08;;;11.90;;
63499;SDS011;49654;51.142;14.924;2023-04-16T07:56:11;14.45;;;10.52;;
63499;SDS011;49654;51.142;14.924;2023-04-16T07:58:38;13.35;;;9.88;;
63499;SDS011;49654;51.142;14.924;2023-04-16T08:01:05;15.85;;;11.02;;
63499;SDS011;49654;51.142;14.924;2023-04-16T08:03:32;15.73;;;10.75;;
63499;SDS011;49654;51.142;14.924;2023-04-16T08:05:59;19.40;;;10.93;;
63499;SDS011;49654;51.142;14.924;2023-04-16T08:08:26;17.40;;;11.57;;
63499;SDS011;49654;51.142;14.924;2023-04-16T08:10:53;18.40;;;12.45;;
63499;SDS011;49654;51.142;14.924;2023-04-16T08:13:22;16.02;;;11.35;;
63499;SDS011;49654;51.142;14.924;2023-04-16T08:15:49;17.08;;;12.02;;
63499;SDS011;49654;51.142;14.924;2023-04-16T08:18:17;17.38;;;12.15;;
63499;SDS011;49654;51.142;14.924;2023-04-16T08:20:44;18.60;;;12.48;;
63499;SDS011;49654;51.142;14.924;2023-04-16T08:23:11;18.45;;;12.77;;
63499;SDS011;49654;51.142;14.924;2023-04-16T08:25:38;19.58;;;13.02;;
63499;SDS011;49654;51.142;14.924;2023-04-16T08:28:05;19.02;;;12.18;;
63499;SDS011;49654;51.142;14.924;2023-04-16T08:30:33;17.58;;;12.40;;
63499;SDS011;49654;51.142;14.924;2023-04-16T08:33:01;20.38;;;14.07;;
63499;SDS011;49654;51.142;14.924;2023-04-16T08:35:29;20.85;;;13.02;;
63499;SDS011;49654;51.142;14.924;2023-04-16T08:37:56;16.85;;;11.48;;
63499;SDS011;49654;51.142;14.924;2023-04-16T08:40:24;17.92;;;13.10;;
63499;SDS011;49654;51.142;14.924;2023-04-16T08:42:52;16.92;;;12.05;;
63499;SDS011;49654;51.142;14.924;2023-04-16T08:45:21;20.25;;;13.57;;
63499;SDS011;49654;51.142;14.924;2023-04-16T08:47:50;17.23;;;12.65;;
63499;SDS011;49654;51.142;14.924;2023-04-16T08:50:21;20.02;;;13.98;;
63499;SDS011;49654;51.142;14.924;2023-04-16T08:52:51;19.13;;;13.07;;
63499;SDS011;49654;51.142;14.924;2023-04-16T08:55:20;19.17;;;12.63;;
63499;SDS011;49654;51.142;14.924;2023-04-16T08:57:53;18.65;;;13.77;;
63499;SDS011;49654;51.142;14.924;2023-04-16T09:00:23;18.63;;;13.27;;
63499;SDS011;49654;51.142;14.924;2023-04-16T09:02:53;14.55;;;11.40;;
63499;SDS011;49654;51.142;14.924;2023-04-16T09:05:20;14.20;;;11.38;;
63499;SDS011;49654;51.142;14.924;2023-04-16T09:07:50;20.40;;;14.75;;
63499;SDS011;49654;51.142;14.924;2023-04-16T09:10:18;22.20;;;15.60;;
63499;SDS011;49654;51.142;14.924;2023-04-16T09:12:45;23.40;;;15.55;;
63499;SDS011;49654;51.142;14.924;2023-04-16T09:15:12;22.65;;;15.05;;
63499;SDS011;49654;51.142;14.924;2023-04-16T09:17:40;19.05;;;14.13;;
63499;SDS011;49654;51.142;14.924;2023-04-16T09:20:08;18.05;;;12.65;;
63499;SDS011;49654;51.142;14.924;2023-04-16T09:22:37;17.20;;;12.52;;
63499;SDS011;49654;51.142;14.924;2023-04-16T09:25:05;15.27;;;11.73;;
63499;SDS011;49654;51.142;14.924;2023-04-16T09:27:33;18.17;;;13.68;;
63499;SDS011;49654;51.142;14.924;2023-04-16T09:30:00;15.15;;;12.23;;
63499;SDS011;49654;51.142;14.924;2023-04-16T09:32:28;16.15;;;12.38;;
63499;SDS011;49654;51.142;14.924;2023-04-16T09:34:55;18.83;;;13.88;;
63499;SDS011;49654;51.142;14.924;2023-04-16T09:37:25;17.23;;;13.82;;
63499;SDS011;49654;51.142;14.924;2023-04-16T09:39:56;20.00;;;14.90;;
63499;SDS011;49654;51.142;14.924;2023-04-16T09:42:25;18.85;;;13.68;;
63499;SDS011;49654;51.142;14.924;2023-04-16T09:44:57;15.80;;;12.73;;
63499;SDS011;49654;51.142;14.924;2023-04-16T09:47:25;20.60;;;13.52;;
63499;SDS011;49654;51.142;14.924;2023-04-16T09:50:05;15.63;;;12.45;;
63499;SDS011;49654;51.142;14.924;2023-04-16T09:52:35;17.42;;;12.48;;
63499;SDS011;49654;51.142;14.924;2023-04-16T09:55:03;13.32;;;11.10;;
63499;SDS011;49654;51.142;14.924;2023-04-16T09:57:31;12.55;;;10.82;;
63499;SDS011;49654;51.142;14.924;2023-04-16T10:00:00;14.52;;;11.45;;
63499;SDS011;49654;51.142;14.924;2023-04-16T10:02:28;13.25;;;11.20;;
63499;SDS011;49654;51.142;14.924;2023-04-16T10:04:56;13.32;;;11.25;;
63499;SDS011;49654;51.142;14.924;2023-04-16T10:07:26;13.70;;;11.65;;
63499;SDS011;49654;51.142;14.924;2023-04-16T10:09:55;13.18;;;11.25;;
63499;SDS011;49654;51.142;14.924;2023-04-16T10:12:24;14.18;;;11.75;;
63499;SDS011;49654;51.142;14.924;2023-04-16T10:14:51;14.43;;;12.27;;
63499;SDS011;49654;51.142;14.924;2023-04-16T10:17:18;14.93;;;13.07;;
63499;SDS011;49654;51.142;14.924;2023-04-16T10:19:48;13.40;;;11.88;;
63499;SDS011;49654;51.142;14.924;2023-04-16T10:22:16;13.30;;;11.10;;
63499;SDS011;49654;51.142;14.924;2023-04-16T10:24:43;13.80;;;11.80;;
63499;SDS011;49654;51.142;14.924;2023-04-16T10:27:13;12.93;;;11.52;;
63499;SDS011;49654;51.142;14.924;2023-04-16T10:29:41;14.38;;;11.93;;
63499;SDS011;49654;51.142;14.924;2023-04-16T10:32:09;13.63;;;11.98;;
63499;SDS011;49654;51.142;14.924;2023-04-16T10:34:37;13.85;;;12.38;;
63499;SDS011;49654;51.142;14.924;2023-04-16T10:37:04;13.32;;;11.93;;
63499;SDS011;49654;51.142;14.924;2023-04-16T10:39:33;13.18;;;11.77;;
63499;SDS011;49654;51.142;14.924;2023-04-16T10:42:06;13.45;;;11.13;;
63499;SDS011;49654;51.142;14.924;2023-04-16T10:44:35;12.50;;;11.20;;
63499;SDS011;49654;51.142;14.924;2023-04-16T10:47:02;13.15;;;11.20;;
63499;SDS011;49654;51.142;14.924;2023-04-16T10:49:35;12.85;;;11.55;;
63499;SDS011;49654;51.142;14.924;2023-04-16T10:52:06;15.05;;;11.32;;
63499;SDS011;49654;51.142;14.924;2023-04-16T10:54:35;12.98;;;11.55;;
63499;SDS011;49654;51.142;14.924;2023-04-16T10:57:03;13.18;;;11.18;;
63499;SDS011;49654;51.142;14.924;2023-04-16T10:59:32;12.80;;;10.85;;
63499;SDS011;49654;51.142;14.924;2023-04-16T11:02:05;13.18;;;11.13;;
63499;SDS011;49654;51.142;14.924;2023-04-16T11:04:34;13.73;;;10.82;;
63499;SDS011;49654;51.142;14.924;2023-04-16T11:07:03;12.90;;;11.50;;
63499;SDS011;49654;51.142;14.924;2023-04-16T11:09:41;14.40;;;12.80;;
63499;SDS011;49654;51.142;14.924;2023-04-16T11:12:10;12.18;;;10.63;;
63499;SDS011;49654;51.142;14.924;2023-04-16T11:14:40;13.93;;;11.73;;
63499;SDS011;49654;51.142;14.924;2023-04-16T11:17:07;13.07;;;11.60;;
63499;SDS011;49654;51.142;14.924;2023-04-16T11:19:34;11.52;;;10.15;;
63499;SDS011;49654;51.142;14.924;2023-04-16T11:22:02;12.32;;;10.93;;
63499;SDS011;49654;51.142;14.924;2023-04-16T11:24:29;11.63;;;10.43;;
63499;SDS011;49654;51.142;14.924;2023-04-16T11:26:56;11.65;;;10.23;;
63499;SDS011;49654;51.142;14.924;2023-04-16T11:29:23;12.20;;;9.93;;
63499;SDS011;49654;51.142;14.924;2023-04-16T11:31:52;10.02;;;9.02;;
63499;SDS011;49654;51.142;14.924;2023-04-16T11:34:20;12.40;;;10.32;;
63499;SDS011;49654;51.142;14.924;2023-04-16T11:36:48;22.58;;;15.40;;
63499;SDS011;49654;51.142;14.924;2023-04-16T11:39:16;14.52;;;11.32;;
63499;SDS011;49654;51.142;14.924;2023-04-16T11:41:44;10.68;;;9.25;;
63499;SDS011;49654;51.142;14.924;2023-04-16T11:44:15;11.68;;;9.65;;
63499;SDS011;49654;51.142;14.924;2023-04-16T11:46:43;14.90;;;10.85;;
63499;SDS011;49654;51.142;14.924;2023-04-16T11:49:11;10.10;;;9.10;;
63499;SDS011;49654;51.142;14.924;2023-04-16T11:51:39;10.63;;;9.07;;
63499;SDS011;49654;51.142;14.924;2023-04-16T11:54:06;9.45;;;8.18;;
63499;SDS011;49654;51.142;14.924;2023-04-16T11:56:34;8.70;;;7.80;;
63499;SDS011;49654;51.142;14.924;2023-04-16T11:59:05;9.57;;;7.82;;
63499;SDS011;49654;51.142;14.924;2023-04-16T12:01:34;8.40;;;7.53;;
63499;SDS011;49654;51.142;14.924;2023-04-16T12:04:01;8.90;;;7.72;;
63499;SDS011;49654;51.142;14.924;2023-04-16T12:06:30;8.70;;;7.80;;
63499;SDS011;49654;51.142;14.924;2023-04-16T12:08:58;8.82;;;6.95;;
63499;SDS011;49654;51.142;14.924;2023-04-16T12:11:37;9.40;;;6.85;;
63499;SDS011;49654;51.142;14.924;2023-04-16T12:14:07;7.10;;;6.40;;
63499;SDS011;49654;51.142;14.924;2023-04-16T12:16:35;7.80;;;6.60;;
63499;SDS011;49654;51.142;14.924;2023-04-16T12:19:03;7.07;;;6.07;;
63499;SDS011;49654;51.142;14.924;2023-04-16T12:21:39;6.43;;;5.82;;
63499;SDS011;49654;51.142;14.924;2023-04-16T12:24:08;6.60;;;5.90;;
63499;SDS011;49654;51.142;14.924;2023-04-16T12:26:39;7.15;;;6.40;;
63499;SDS011;49654;51.142;14.924;2023-04-16T12:29:14;6.70;;;6.05;;
63499;SDS011;49654;51.142;14.924;2023-04-16T12:31:42;6.85;;;6.20;;
63499;SDS011;49654;51.142;14.924;2023-04-16T12:34:09;8.90;;;6.28;;
63499;SDS011;49654;51.142;14.924;2023-04-16T12:36:36;6.93;;;6.22;;
63499;SDS011;49654;51.142;14.924;2023-04-16T12:39:04;7.82;;;6.47;;
63499;SDS011;49654;51.142;14.924;2023-04-16T12:41:33;7.53;;;6.32;;
63499;SDS011;49654;51.142;14.924;2023-04-16T12:44:02;5.72;;;5.13;;
63499;SDS011;49654;51.142;14.924;2023-04-16T12:46:31;5.13;;;4.63;;
63499;SDS011;49654;51.142;14.924;2023-04-16T12:48:58;5.53;;;5.03;;
63499;SDS011;49654;51.142;14.924;2023-04-16T12:51:25;5.20;;;4.72;;
63499;SDS011;49654;51.142;14.924;2023-04-16T12:53:53;5.53;;;5.03;;
63499;SDS011;49654;51.142;14.924;2023-04-16T12:56:21;4.97;;;4.55;;
63499;SDS011;49654;51.142;14.924;2023-04-16T12:58:48;4.57;;;4.18;;
63499;SDS011;49654;51.142;14.924;2023-04-16T13:01:16;4.65;;;4.25;;
63499;SDS011;49654;51.142;14.924;2023-04-16T13:03:44;4.78;;;4.28;;
63499;SDS011;49654;51.142;14.924;2023-04-16T13:06:11;7.28;;;4.88;;
63499;SDS011;49654;51.142;14.924;2023-04-16T13:08:38;6.55;;;5.10;;
63499;SDS011;49654;51.142;14.924;2023-04-16T13:11:05;5.78;;;5.18;;
63499;SDS011;49654;51.142;14.924;2023-04-16T13:13:34;6.70;;;4.45;;
63499;SDS011;49654;51.142;14.924;2023-04-16T13:16:01;5.82;;;5.32;;
63499;SDS011;49654;51.142;14.924;2023-04-16T13:18:31;7.47;;;4.88;;
63499;SDS011;49654;51.142;14.924;2023-04-16T13:20:58;5.47;;;4.80;;
63499;SDS011;49654;51.142;14.924;2023-04-16T13:23:25;4.90;;;4.40;;
63499;SDS011;49654;51.142;14.924;2023-04-16T13:25:52;5.60;;;4.30;;
63499;SDS011;49654;51.142;14.924;2023-04-16T13:28:19;4.15;;;3.75;;
63499;SDS011;49654;51.142;14.924;2023-04-16T13:30:47;6.10;;;4.05;;
63499;SDS011;49654;51.142;14.924;2023-04-16T13:33:15;6.30;;;4.18;;
63499;SDS011;49654;51.142;14.924;2023-04-16T13:35:42;4.63;;;3.83;;
63499;SDS011;49654;51.142;14.924;2023-04-16T13:38:09;4.03;;;3.63;;
63499;SDS011;49654;51.142;14.924;2023-04-16T13:40:36;6.60;;;4.05;;
63499;SDS011;49654;51.142;14.924;2023-04-16T13:43:03;6.57;;;5.25;;
63499;SDS011;49654;51.142;14.924;2023-04-16T13:45:30;5.88;;;5.28;;
63499;SDS011;49654;51.142;14.924;2023-04-16T13:47:59;8.38;;;6.13;;
63499;SDS011;49654;51.142;14.924;2023-04-16T13:50:26;8.80;;;5.43;;
63499;SDS011;49654;51.142;14.924;2023-04-16T13:52:53;3.83;;;3.45;;
63499;SDS011;49654;51.142;14.924;2023-04-16T13:55:21;7.38;;;5.50;;
63499;SDS011;49654;51.142;14.924;2023-04-16T13:57:48;12.85;;;7.18;;
63499;SDS011;49654;51.142;14.924;2023-04-16T14:00:17;4.03;;;3.38;;
63499;SDS011;49654;51.142;14.924;2023-04-16T14:02:44;5.47;;;4.55;;
63499;SDS011;49654;51.142;14.924;2023-04-16T14:05:14;4.68;;;3.38;;
63499;SDS011;49654;51.142;14.924;2023-04-16T14:07:41;6.70;;;4.65;;
63499;SDS011;49654;51.142;14.924;2023-04-16T14:10:08;7.13;;;5.05;;
63499;SDS011;49654;51.142;14.924;2023-04-16T14:12:36;4.97;;;3.50;;
63499;SDS011;49654;51.142;14.924;2023-04-16T14:15:04;3.08;;;2.80;;
63499;SDS011;49654;51.142;14.924;2023-04-16T14:17:34;3.92;;;2.92;;
63499;SDS011;49654;51.142;14.924;2023-04-16T14:20:01;4.32;;;3.33;;
63499;SDS011;49654;51.142;14.924;2023-04-16T14:22:30;3.20;;;2.90;;
63499;SDS011;49654;51.142;14.924;2023-04-16T14:24:58;3.08;;;2.72;;